Time;durP1;ratioP1;P1;durP2;ratioP2;P2;SDS_P1;SDS_P2;PMS_P1;PMS_P2;Temp;Humidity;BMP_temperature;BMP_pressure;BME280_temperature;BME280_humidity;BME280_pressure;Samples;Min_cycle;Max_cycle;Signal;HPM_P1;HPM_P2
2021/11/20 00:00:33;;;;;;;15.00;11.70;;;;;;;;;;5054027;28;20461;-66
2021/11/20 00:03:00;;;;;;;13.07;11.45;;;;;;;;;;5053679;28;20025;-66
2021/11/20 00:05:29;;;;;;;15.43;10.80;;;;;;;;;;5052928;28;20037;-66
2021/11/20 00:07:57;;;;;;;13.02;10.95;;;;;;;;;;5053672;28;20037;-65
2021/11/20 00:10:26;;;;;;;11.27;9.85;;;;;;;;;;5053746;28;20094;-65
2021/11/20 00:12:53;;;;;;;15.02;11.68;;;;;;;;;;5053323;28;20037;-66
2021/11/20 00:15:21;;;;;;;13.00;10.15;;;;;;;;;;5053163;28;20029;-66
2021/11/20 00:17:48;;;;;;;12.15;10.63;;;;;;;;;;5053451;28;20045;-66
2021/11/20 00:20:16;;;;;;;12.45;10.75;;;;;;;;;;5053388;28;20032;-65
2021/11/20 00:22:45;;;;;;;13.30;11.15;;;;;;;;;;5044948;28;20370;-66
2021/11/20 00:25:21;;;;;;;11.32;10.10;;;;;;;;;;5053797;28;20466;-65
2021/11/20 00:27:50;;;;;;;14.50;10.95;;;;;;;;;;5040510;28;20409;-66
2021/11/20 00:30:19;;;;;;;12.25;10.95;;;;;;;;;;5033560;28;20069;-65
2021/11/20 00:32:51;;;;;;;12.60;10.25;;;;;;;;;;5032538;28;20041;-66
2021/11/20 00:35:21;;;;;;;11.68;10.05;;;;;;;;;;5032052;28;20048;-65
2021/11/20 00:37:49;;;;;;;10.65;9.18;;;;;;;;;;5034518;28;20397;-66
2021/11/20 00:40:18;;;;;;;12.55;9.65;;;;;;;;;;5032118;28;20044;-65
2021/11/20 00:42:45;;;;;;;11.95;10.43;;;;;;;;;;5050260;28;20369;-65
2021/11/20 00:45:12;;;;;;;11.95;10.15;;;;;;;;;;5052027;28;20085;-66
2021/11/20 00:47:39;;;;;;;12.43;10.45;;;;;;;;;;5051703;28;20036;-66
2021/11/20 00:50:06;;;;;;;11.80;10.00;;;;;;;;;;5018661;28;20404;-65
2021/11/20 00:52:33;;;;;;;12.75;11.23;;;;;;;;;;5053059;28;20055;-66
2021/11/20 00:55:01;;;;;;;13.00;10.68;;;;;;;;;;5050878;28;20040;-65
2021/11/20 00:57:29;;;;;;;12.73;10.57;;;;;;;;;;5042143;28;20029;-65
2021/11/20 00:59:56;;;;;;;12.57;10.27;;;;;;;;;;5040814;28;20478;-65
2021/11/20 01:02:23;;;;;;;10.77;9.07;;;;;;;;;;5039762;28;20039;-65
2021/11/20 01:04:50;;;;;;;11.90;9.73;;;;;;;;;;5040413;28;20029;-65
2021/11/20 01:07:17;;;;;;;9.50;8.50;;;;;;;;;;5042609;28;20037;-65
2021/11/20 01:09:45;;;;;;;9.50;8.40;;;;;;;;;;5030720;28;20033;-65
2021/11/20 01:12:15;;;;;;;9.20;8.30;;;;;;;;;;5031175;28;20030;-66
2021/11/20 01:14:43;;;;;;;11.82;9.43;;;;;;;;;;5031395;28;20033;-66
2021/11/20 01:17:10;;;;;;;11.85;9.82;;;;;;;;;;5015024;28;20576;-66
2021/11/20 01:19:38;;;;;;;11.52;9.57;;;;;;;;;;5032966;28;20037;-67
2021/11/20 01:22:06;;;;;;;12.02;10.35;;;;;;;;;;5032786;28;20030;-66
2021/11/20 01:24:45;;;;;;;11.85;10.23;;;;;;;;;;5031019;28;20041;-66
2021/11/20 01:27:18;;;;;;;13.45;11.02;;;;;;;;;;5031214;28;20398;-66
2021/11/20 01:29:47;;;;;;;13.18;11.35;;;;;;;;;;5015279;28;20029;-66
2021/11/20 01:32:14;;;;;;;13.77;12.00;;;;;;;;;;5034285;28;20024;-66
2021/11/20 01:34:41;;;;;;;11.80;10.60;;;;;;;;;;5025605;28;20037;-66
2021/11/20 01:37:09;;;;;;;13.75;11.50;;;;;;;;;;5041182;28;20385;-66
2021/11/20 01:39:42;;;;;;;13.38;11.10;;;;;;;;;;5042891;28;20068;-64
2021/11/20 01:42:23;;;;;;;12.23;10.98;;;;;;;;;;5051625;28;20041;-65
2021/11/20 01:45:25;;;;;;;10.45;9.35;;;;;;;;;;5046646;28;20024;-64
2021/11/20 01:48:07;;;;;;;14.25;12.35;;;;;;;;;;5058009;28;20049;-66
2021/11/20 01:50:40;;;;;;;14.68;11.85;;;;;;;;;;5037006;28;20045;-65
2021/11/20 01:53:16;;;;;;;13.32;11.75;;;;;;;;;;5038544;28;20040;-65
2021/11/20 01:55:47;;;;;;;13.15;11.43;;;;;;;;;;5041561;28;20044;-64
2021/11/20 01:58:36;;;;;;;17.20;13.43;;;;;;;;;;5031351;28;20033;-65
2021/11/20 02:01:14;;;;;;;13.60;10.73;;;;;;;;;;5030890;28;20045;-65
2021/11/20 02:03:48;;;;;;;13.57;10.88;;;;;;;;;;5031099;28;20033;-65
2021/11/20 02:06:29;;;;;;;13.48;10.05;;;;;;;;;;5029609;28;20040;-65
2021/11/20 02:09:07;;;;;;;12.40;10.93;;;;;;;;;;5029081;28;20041;-67
2021/11/20 02:11:51;;;;;;;11.63;10.45;;;;;;;;;;5028920;28;20033;-67
2021/11/20 02:14:19;;;;;;;13.68;10.30;;;;;;;;;;5029164;28;20393;-66
2021/11/20 02:16:49;;;;;;;11.10;10.00;;;;;;;;;;5028615;28;20057;-65
2021/11/20 02:19:20;;;;;;;10.65;9.55;;;;;;;;;;5012412;28;20026;-66
2021/11/20 02:21:52;;;;;;;11.13;9.93;;;;;;;;;;5029382;28;20033;-65
2021/11/20 02:24:18;;;;;;;10.07;8.63;;;;;;;;;;5031214;28;20033;-66
2021/11/20 02:27:12;;;;;;;9.90;8.45;;;;;;;;;;5037615;28;20042;-63
2021/11/20 02:29:46;;;;;;;9.90;8.90;;;;;;;;;;5030940;28;20034;-68
2021/11/20 02:32:23;;;;;;;8.90;7.95;;;;;;;;;;5032208;28;20033;-66
2021/11/20 02:35:00;;;;;;;9.40;7.55;;;;;;;;;;5031127;28;20025;-66
2021/11/20 02:37:30;;;;;;;10.70;8.83;;;;;;;;;;5033045;28;20053;-64
2021/11/20 02:39:57;;;;;;;14.05;10.10;;;;;;;;;;5034652;28;20029;-65
2021/11/20 02:42:24;;;;;;;11.40;8.57;;;;;;;;;;5035227;28;20037;-65
2021/11/20 02:45:37;;;;;;;9.57;7.63;;;;;;;;;;5034869;28;20030;-65
2021/11/20 02:48:04;;;;;;;9.40;7.38;;;;;;;;;;5034127;28;20045;-65
2021/11/20 02:50:43;;;;;;;9.90;7.55;;;;;;;;;;5034146;28;20474;-65
2021/11/20 02:53:21;;;;;;;9.88;7.60;;;;;;;;;;5034151;28;20033;-66
2021/11/20 02:55:50;;;;;;;8.20;7.28;;;;;;;;;;5034176;28;20359;-65
2021/11/20 02:58:19;;;;;;;8.70;7.80;;;;;;;;;;5034332;28;20064;-65
2021/11/20 03:01:06;;;;;;;8.00;6.40;;;;;;;;;;5034117;28;20045;-66
2021/11/20 03:03:33;;;;;;;8.40;7.13;;;;;;;;;;5034241;28;20045;-66
2021/11/20 03:06:00;;;;;;;8.57;7.30;;;;;;;;;;5017734;28;20056;-66
2021/11/20 03:08:27;;;;;;;9.23;7.88;;;;;;;;;;5035567;28;20363;-65
2021/11/20 03:10:58;;;;;;;9.00;7.47;;;;;;;;;;5034098;28;20042;-64
2021/11/20 03:13:26;;;;;;;9.25;7.32;;;;;;;;;;5033825;28;20040;-64
2021/11/20 03:15:53;;;;;;;9.10;7.32;;;;;;;;;;5017691;28;20045;-64
2021/11/20 03:18:20;;;;;;;8.68;6.93;;;;;;;;;;5033930;28;20053;-65
2021/11/20 03:20:48;;;;;;;9.32;7.80;;;;;;;;;;5037197;28;20033;-65
2021/11/20 03:23:18;;;;;;;12.13;8.77;;;;;;;;;;5037701;28;20032;-68
2021/11/20 03:25:45;;;;;;;9.77;8.75;;;;;;;;;;5033556;28;20044;-66
2021/11/20 03:28:12;;;;;;;13.10;9.13;;;;;;;;;;5033520;28;20473;-66
2021/11/20 03:30:39;;;;;;;9.40;8.18;;;;;;;;;;5034942;28;20040;-66
2021/11/20 03:33:06;;;;;;;9.45;8.13;;;;;;;;;;5033850;28;20037;-66
2021/11/20 03:35:33;;;;;;;10.07;8.50;;;;;;;;;;5033533;28;20045;-66
2021/11/20 03:38:10;;;;;;;9.82;8.48;;;;;;;;;;5033508;28;20371;-65
2021/11/20 03:40:37;;;;;;;11.60;8.77;;;;;;;;;;5033265;28;20037;-65
2021/11/20 03:43:05;;;;;;;10.20;8.52;;;;;;;;;;5033304;28;20462;-65
2021/11/20 03:45:33;;;;;;;9.75;8.05;;;;;;;;;;5033741;28;20037;-65
2021/11/20 03:48:01;;;;;;;9.18;8.27;;;;;;;;;;5032339;28;20045;-66
2021/11/20 03:50:29;;;;;;;10.32;8.00;;;;;;;;;;5033423;28;20033;-65
2021/11/20 03:52:56;;;;;;;9.95;8.95;;;;;;;;;;5033139;28;20049;-65
2021/11/20 03:55:26;;;;;;;10.13;8.05;;;;;;;;;;5032980;28;20040;-66
2021/11/20 03:57:53;;;;;;;12.60;8.55;;;;;;;;;;5033180;28;20037;-66
2021/11/20 04:00:21;;;;;;;10.38;8.80;;;;;;;;;;5016618;28;20037;-66
2021/11/20 04:02:52;;;;;;;10.82;8.90;;;;;;;;;;5042129;28;20044;-66
2021/11/20 04:05:19;;;;;;;8.88;7.78;;;;;;;;;;5053082;28;20032;-64
2021/11/20 04:07:46;;;;;;;9.95;8.45;;;;;;;;;;5052925;28;20481;-65
2021/11/20 04:10:14;;;;;;;8.60;7.65;;;;;;;;;;5053020;28;20044;-65
2021/11/20 04:12:41;;;;;;;9.82;7.93;;;;;;;;;;5053598;28;20446;-65
2021/11/20 04:15:10;;;;;;;9.45;8.27;;;;;;;;;;5036077;28;20033;-65
2021/11/20 04:17:37;;;;;;;11.52;7.80;;;;;;;;;;5052723;28;20056;-66
2021/11/20 04:20:09;;;;;;;9.63;7.68;;;;;;;;;;5052470;28;20044;-66
2021/11/20 04:22:36;;;;;;;10.75;8.77;;;;;;;;;;5048803;28;20041;-66
2021/11/20 04:25:04;;;;;;;9.13;7.85;;;;;;;;;;5032498;28;20045;-68
2021/11/20 04:27:52;;;;;;;11.07;7.90;;;;;;;;;;5032586;28;20045;-65
2021/11/20 04:30:25;;;;;;;10.25;8.05;;;;;;;;;;5032482;28;20037;-65
2021/11/20 04:32:52;;;;;;;10.23;8.40;;;;;;;;;;5032316;28;20040;-66
2021/11/20 04:35:21;;;;;;;10.02;8.52;;;;;;;;;;5032203;28;20044;-65
2021/11/20 04:37:48;;;;;;;8.43;7.53;;;;;;;;;;5032624;28;20462;-65
2021/11/20 04:40:17;;;;;;;10.10;9.00;;;;;;;;;;5032003;28;20034;-66
2021/11/20 04:42:44;;;;;;;8.75;7.50;;;;;;;;;;5031995;28;20037;-66
2021/11/20 04:45:14;;;;;;;10.32;8.57;;;;;;;;;;5032371;28;20029;-65
2021/11/20 04:47:42;;;;;;;9.55;7.65;;;;;;;;;;5031957;28;20033;-65
2021/11/20 04:50:15;;;;;;;8.63;6.90;;;;;;;;;;5032556;28;20036;-65
2021/11/20 04:52:42;;;;;;;8.25;6.70;;;;;;;;;;5033218;28;20034;-65
2021/11/20 04:55:10;;;;;;;8.32;7.32;;;;;;;;;;5031952;28;20025;-65
2021/11/20 04:57:39;;;;;;;9.13;7.75;;;;;;;;;;5031928;28;20036;-65
2021/11/20 05:00:08;;;;;;;9.00;7.47;;;;;;;;;;5032480;28;20045;-66
2021/11/20 05:02:40;;;;;;;7.78;6.68;;;;;;;;;;5032014;28;20037;-65
2021/11/20 05:05:07;;;;;;;11.50;8.25;;;;;;;;;;5031822;28;20394;-66
2021/11/20 05:07:34;;;;;;;12.52;6.63;;;;;;;;;;5031986;28;20050;-65
2021/11/20 05:10:01;;;;;;;8.45;7.13;;;;;;;;;;5032138;28;20033;-65
2021/11/20 05:12:30;;;;;;;8.57;7.15;;;;;;;;;;5015136;28;20033;-65
2021/11/20 05:15:09;;;;;;;9.55;7.15;;;;;;;;;;5031488;28;20045;-66
2021/11/20 05:17:36;;;;;;;10.43;8.10;;;;;;;;;;5031577;28;20076;-65
2021/11/20 05:20:04;;;;;;;8.20;6.82;;;;;;;;;;5032255;28;20029;-65
2021/11/20 05:22:31;;;;;;;10.68;8.13;;;;;;;;;;5034653;28;20036;-66
2021/11/20 05:24:58;;;;;;;10.57;7.60;;;;;;;;;;5051357;28;20381;-65
2021/11/20 05:27:25;;;;;;;9.65;7.78;;;;;;;;;;5052636;28;20033;-64
2021/11/20 05:30:10;;;;;;;9.80;6.70;;;;;;;;;;5051260;28;20044;-65
2021/11/20 05:32:37;;;;;;;9.05;7.32;;;;;;;;;;5052003;28;20473;-65
2021/11/20 05:35:04;;;;;;;8.40;7.45;;;;;;;;;;5051280;28;20493;-65
2021/11/20 05:37:31;;;;;;;9.88;7.88;;;;;;;;;;5051222;28;20051;-65
2021/11/20 05:39:59;;;;;;;8.30;7.25;;;;;;;;;;5051291;28;20037;-65
2021/11/20 05:42:26;;;;;;;8.10;7.10;;;;;;;;;;5051270;28;20048;-65
2021/11/20 05:44:55;;;;;;;9.15;7.20;;;;;;;;;;5051009;28;20035;-65
2021/11/20 05:47:22;;;;;;;9.45;7.28;;;;;;;;;;5051113;28;20037;-65
2021/11/20 05:49:49;;;;;;;9.00;7.38;;;;;;;;;;5034374;28;20389;-65
2021/11/20 05:52:19;;;;;;;10.55;7.88;;;;;;;;;;5035283;28;20032;-65
2021/11/20 05:54:46;;;;;;;11.50;8.82;;;;;;;;;;5051119;28;20036;-65
2021/11/20 05:57:19;;;;;;;9.40;7.25;;;;;;;;;;5051376;28;20049;-65
2021/11/20 05:59:48;;;;;;;8.80;7.60;;;;;;;;;;5050970;28;20029;-66
2021/11/20 06:02:17;;;;;;;10.15;8.57;;;;;;;;;;5032431;28;20045;-65
2021/11/20 06:04:52;;;;;;;9.98;7.25;;;;;;;;;;5031443;28;20045;-65
2021/11/20 06:07:20;;;;;;;9.23;6.82;;;;;;;;;;5031095;28;20036;-64
2021/11/20 06:09:47;;;;;;;9.38;7.60;;;;;;;;;;5031356;28;20490;-65
2021/11/20 06:12:22;;;;;;;9.93;8.23;;;;;;;;;;5032835;28;20030;-65
2021/11/20 06:14:48;;;;;;;9.57;7.97;;;;;;;;;;5035057;28;20496;-65
2021/11/20 06:17:15;;;;;;;9.98;7.25;;;;;;;;;;5034350;28;20556;-65
2021/11/20 06:19:45;;;;;;;9.10;7.78;;;;;;;;;;5040204;28;20028;-65
2021/11/20 06:22:11;;;;;;;8.45;7.43;;;;;;;;;;5054357;28;20033;-65
2021/11/20 06:24:39;;;;;;;9.10;7.50;;;;;;;;;;5018616;28;20037;-65
2021/11/20 06:27:05;;;;;;;9.77;8.52;;;;;;;;;;5035609;28;20159;-65
2021/11/20 06:29:36;;;;;;;9.32;7.82;;;;;;;;;;5044762;28;20048;-65
2021/11/20 06:32:10;;;;;;;9.68;7.40;;;;;;;;;;5053923;28;20047;-64
2021/11/20 06:34:41;;;;;;;9.70;8.02;;;;;;;;;;5054941;28;20029;-64
2021/11/20 06:37:27;;;;;;;10.10;7.60;;;;;;;;;;5054151;28;20029;-64
2021/11/20 06:40:10;;;;;;;9.68;7.10;;;;;;;;;;5054573;28;20037;-65
2021/11/20 06:42:37;;;;;;;10.43;8.57;;;;;;;;;;5055637;28;20040;-64
2021/11/20 06:45:06;;;;;;;10.27;7.38;;;;;;;;;;5054356;28;20052;-64
2021/11/20 06:47:34;;;;;;;7.75;6.72;;;;;;;;;;5053734;28;20048;-66
2021/11/20 06:50:01;;;;;;;8.80;7.60;;;;;;;;;;5053684;28;20048;-66
2021/11/20 06:52:41;;;;;;;9.07;7.15;;;;;;;;;;5038805;28;20036;-65
2021/11/20 06:55:28;;;;;;;8.80;7.20;;;;;;;;;;5055287;28;20037;-65
2021/11/20 06:58:42;;;;;;;8.95;7.32;;;;;;;;;;5054185;28;20048;-65
2021/11/20 07:01:17;;;;;;;9.43;7.03;;;;;;;;;;5054331;28;20037;-64
2021/11/20 07:03:58;;;;;;;9.30;7.10;;;;;;;;;;5053862;28;20051;-65
2021/11/20 07:06:30;;;;;;;8.63;6.43;;;;;;;;;;5054012;28;20040;-65
2021/11/20 07:08:58;;;;;;;8.23;6.03;;;;;;;;;;5053928;28;20048;-65
2021/11/20 07:11:25;;;;;;;7.43;6.10;;;;;;;;;;5054405;28;20037;-67
2021/11/20 07:13:53;;;;;;;7.30;6.13;;;;;;;;;;5054947;28;20029;-65
2021/11/20 07:16:22;;;;;;;12.52;10.57;;;;;;;;;;5054007;28;20040;-65
2021/11/20 07:18:50;;;;;;;9.65;8.30;;;;;;;;;;5047961;28;20072;-65
2021/11/20 07:21:40;;;;;;;7.10;5.97;;;;;;;;;;5053511;28;20044;-65
2021/11/20 07:24:30;;;;;;;8.07;6.47;;;;;;;;;;5035548;28;20048;-65
2021/11/20 07:26:57;;;;;;;8.32;6.30;;;;;;;;;;5033249;28;20049;-65
2021/11/20 07:29:24;;;;;;;9.23;6.80;;;;;;;;;;5034892;28;20496;-67
2021/11/20 07:32:05;;;;;;;9.38;7.40;;;;;;;;;;5044048;28;20055;-65
2021/11/20 07:34:32;;;;;;;8.98;7.35;;;;;;;;;;5044104;28;20033;-65
2021/11/20 07:36:59;;;;;;;9.07;7.10;;;;;;;;;;5042417;28;20040;-65
2021/11/20 07:39:26;;;;;;;9.07;6.55;;;;;;;;;;5040180;28;20026;-65
2021/11/20 07:41:52;;;;;;;7.25;5.80;;;;;;;;;;5043378;28;20371;-65
2021/11/20 07:44:22;;;;;;;7.82;5.90;;;;;;;;;;5044617;28;20021;-65
2021/11/20 07:46:48;;;;;;;8.75;6.00;;;;;;;;;;5043661;28;20041;-65
2021/11/20 07:49:17;;;;;;;6.90;6.00;;;;;;;;;;5042342;28;20048;-71
2021/11/20 07:51:45;;;;;;;7.05;5.43;;;;;;;;;;5027256;28;20044;-65
2021/11/20 07:54:14;;;;;;;6.47;5.40;;;;;;;;;;5035573;28;20485;-65
2021/11/20 07:57:00;;;;;;;6.07;5.05;;;;;;;;;;5042494;28;20053;-66
2021/11/20 07:59:28;;;;;;;8.45;7.57;;;;;;;;;;5044118;28;20041;-64
2021/11/20 08:02:12;;;;;;;8.82;6.35;;;;;;;;;;5027504;28;20032;-64
2021/11/20 08:04:45;;;;;;;8.35;6.80;;;;;;;;;;5042078;28;20045;-64
2021/11/20 08:07:37;;;;;;;7.55;5.80;;;;;;;;;;5032668;28;20040;-67
2021/11/20 08:10:25;;;;;;;7.88;6.40;;;;;;;;;;5042340;28;20040;-65
2021/11/20 08:12:52;;;;;;;8.10;6.18;;;;;;;;;;5049420;28;20036;-65
2021/11/20 08:15:52;;;;;;;8.32;6.35;;;;;;;;;;5043353;28;20030;-68
2021/11/20 08:18:45;;;;;;;6.85;6.15;;;;;;;;;;5026810;28;20060;-65
2021/11/20 08:21:28;;;;;;;6.80;6.10;;;;;;;;;;5043899;28;20029;-65
2021/11/20 08:24:00;;;;;;;8.75;5.65;;;;;;;;;;5038255;28;20050;-65
2021/11/20 08:26:35;;;;;;;9.38;6.47;;;;;;;;;;5044527;28;20033;-64
2021/11/20 08:29:06;;;;;;;7.65;6.43;;;;;;;;;;5015668;28;20393;-64
2021/11/20 08:31:34;;;;;;;8.73;6.93;;;;;;;;;;5040501;28;20044;-64
2021/11/20 08:34:14;;;;;;;7.20;6.35;;;;;;;;;;5051952;28;20035;-64
2021/11/20 08:36:54;;;;;;;9.45;7.10;;;;;;;;;;5052256;28;20033;-65
2021/11/20 08:39:33;;;;;;;9.17;7.13;;;;;;;;;;5051817;28;20085;-64
2021/11/20 08:42:00;;;;;;;9.57;7.55;;;;;;;;;;5051999;28;20377;-64
2021/11/20 08:44:27;;;;;;;9.00;7.10;;;;;;;;;;5051825;28;20477;-65
2021/11/20 08:46:57;;;;;;;9.20;8.07;;;;;;;;;;5052020;28;20076;-65
2021/11/20 08:49:26;;;;;;;8.82;7.72;;;;;;;;;;5051721;28;20033;-65
2021/11/20 08:51:53;;;;;;;10.07;7.63;;;;;;;;;;5051962;28;20040;-66
2021/11/20 08:54:21;;;;;;;9.57;7.70;;;;;;;;;;5051848;28;20028;-65
2021/11/20 08:56:49;;;;;;;10.27;8.57;;;;;;;;;;5052012;28;20033;-65
2021/11/20 08:59:20;;;;;;;;;;;;;;;;;;5053743;28;20465;-65
2021/11/20 09:02:09;;;;;;;;;;;;;;;;;;5051850;28;19916;-65
2021/11/20 09:04:51;;;;;;;9.32;7.85;;;;;;;;;;5051693;28;19909;-65
2021/11/20 09:07:19;;;;;;;10.38;8.40;;;;;;;;;;5034963;28;20485;-65
2021/11/20 09:09:55;;;;;;;9.90;8.30;;;;;;;;;;5051594;28;20056;-65
2021/11/20 09:12:31;;;;;;;11.15;9.60;;;;;;;;;;5018072;28;20037;-65
2021/11/20 09:15:00;;;;;;;11.63;8.32;;;;;;;;;;5034638;28;20037;-65
2021/11/20 09:17:36;;;;;;;11.93;9.45;;;;;;;;;;5051428;28;20053;-65
2021/11/20 09:20:04;;;;;;;12.15;9.13;;;;;;;;;;5051390;28;20052;-64
2021/11/20 09:22:31;;;;;;;11.15;9.43;;;;;;;;;;5047475;28;20595;-65
2021/11/20 09:25:06;;;;;;;11.63;9.75;;;;;;;;;;5026773;28;20112;-65
2021/11/20 09:27:39;;;;;;;10.75;8.35;;;;;;;;;;5040126;28;20412;-64
2021/11/20 09:30:08;;;;;;;11.20;9.35;;;;;;;;;;5046204;28;20057;-63
2021/11/20 09:32:35;;;;;;;11.63;9.52;;;;;;;;;;5051109;28;20028;-66
2021/11/20 09:35:12;;;;;;;14.43;10.02;;;;;;;;;;5051245;28;20037;-66
2021/11/20 09:37:58;;;;;;;14.98;11.23;;;;;;;;;;5052228;28;20492;-65
2021/11/20 09:40:27;;;;;;;13.75;11.38;;;;;;;;;;5034616;28;20040;-66
2021/11/20 09:42:59;;;;;;;12.38;10.32;;;;;;;;;;5034359;28;20515;-66
2021/11/20 09:45:28;;;;;;;14.93;10.93;;;;;;;;;;5046184;28;20029;-75
2021/11/20 09:48:12;;;;;;;16.95;11.80;;;;;;;;;;5015293;28;20048;-69
2021/11/20 09:50:54;;;;;;;12.75;9.70;;;;;;;;;;5022494;28;20413;-71
2021/11/20 09:53:21;;;;;;;15.05;11.95;;;;;;;;;;5013817;28;20389;-73
2021/11/20 09:55:52;;;;;;;15.48;11.45;;;;;;;;;;5029639;28;20033;-71
2021/11/20 09:58:18;;;;;;;;;;;;;;;;;;5041388;28;20029;-70
2021/11/20 10:00:57;;;;;;;14.25;10.15;;;;;;;;;;5038119;28;19913;-65
2021/11/20 10:03:31;;;;;;;14.65;11.02;;;;;;;;;;5039031;28;20050;-73
2021/11/20 10:06:00;;;;;;;15.80;12.50;;;;;;;;;;5046547;28;20092;-71
2021/11/20 10:08:28;;;;;;;15.93;12.75;;;;;;;;;;5035028;28;20029;-72
2021/11/20 10:11:01;;;;;;;15.50;13.80;;;;;;;;;;5031011;28;20022;-70
2021/11/20 10:13:33;;;;;;;14.35;12.80;;;;;;;;;;5032176;28;20034;-71
2021/11/20 10:16:03;;;;;;;14.82;12.77;;;;;;;;;;5032954;28;20021;-71
2021/11/20 10:18:32;;;;;;;18.92;13.15;;;;;;;;;;5032228;28;20037;-71
2021/11/20 10:21:15;;;;;;;17.73;13.27;;;;;;;;;;5032197;28;20034;-71
2021/11/20 10:23:45;;;;;;;17.35;13.48;;;;;;;;;;5037974;28;20041;-69
2021/11/20 10:26:14;;;;;;;19.65;14.25;;;;;;;;;;5039759;28;20064;-69
2021/11/20 10:28:47;;;;;;;16.23;13.98;;;;;;;;;;5030434;28;20033;-69
2021/11/20 10:31:17;;;;;;;15.80;13.85;;;;;;;;;;5034668;28;20029;-69
2021/11/20 10:33:56;;;;;;;15.90;13.38;;;;;;;;;;5037360;28;20029;-68
2021/11/20 10:36:26;;;;;;;19.67;16.08;;;;;;;;;;5038673;28;20059;-67
2021/11/20 10:38:59;;;;;;;17.58;15.15;;;;;;;;;;5035854;28;20025;-68
2021/11/20 10:41:43;;;;;;;18.60;15.68;;;;;;;;;;5039380;28;20504;-71
2021/11/20 10:44:12;;;;;;;19.08;15.70;;;;;;;;;;5030987;28;20030;-67
2021/11/20 10:46:58;;;;;;;25.85;17.25;;;;;;;;;;5031312;28;20030;-67
2021/11/20 10:49:27;;;;;;;21.42;17.45;;;;;;;;;;5040855;28;20029;-67
2021/11/20 10:52:14;;;;;;;22.37;16.57;;;;;;;;;;5034155;28;20037;-67
2021/11/20 10:55:00;;;;;;;22.98;19.05;;;;;;;;;;5042715;28;20397;-67
2021/11/20 10:57:44;;;;;;;24.95;19.38;;;;;;;;;;5043527;28;20398;-68
2021/11/20 11:00:14;;;;;;;22.70;19.55;;;;;;;;;;5046782;28;20026;-68
2021/11/20 11:02:41;;;;;;;20.63;18.10;;;;;;;;;;5042505;28;20466;-67
2021/11/20 11:05:16;;;;;;;18.67;16.25;;;;;;;;;;5042551;28;20303;-67
2021/11/20 11:07:56;;;;;;;21.05;17.45;;;;;;;;;;5043735;28;20036;-67
2021/11/20 11:10:28;;;;;;;18.55;14.88;;;;;;;;;;5036541;28;20033;-67
2021/11/20 11:12:58;;;;;;;20.27;17.27;;;;;;;;;;5045712;28;20029;-67
2021/11/20 11:15:28;;;;;;;18.80;15.52;;;;;;;;;;5043475;28;20045;-67
2021/11/20 11:18:04;;;;;;;16.40;13.90;;;;;;;;;;5047033;28;20048;-67
2021/11/20 11:20:36;;;;;;;26.05;21.05;;;;;;;;;;5040601;28;20038;-67
2021/11/20 11:23:15;;;;;;;23.50;21.02;;;;;;;;;;5048168;28;20049;-67
2021/11/20 11:25:51;;;;;;;25.10;22.20;;;;;;;;;;5045467;28;20373;-67
2021/11/20 11:28:18;;;;;;;23.33;20.73;;;;;;;;;;5037056;28;20496;-67
2021/11/20 11:30:48;;;;;;;24.55;20.50;;;;;;;;;;5044580;28;20024;-67
2021/11/20 11:33:14;;;;;;;24.53;20.90;;;;;;;;;;5044344;28;20045;-68
2021/11/20 11:35:46;;;;;;;23.63;21.05;;;;;;;;;;5044884;28;20268;-66
2021/11/20 11:38:32;;;;;;;24.13;21.23;;;;;;;;;;5037055;28;20029;-67
2021/11/20 11:41:14;;;;;;;23.65;20.55;;;;;;;;;;5045832;28;20032;-67
2021/11/20 11:43:59;;;;;;;21.13;18.63;;;;;;;;;;5040734;28;20377;-67
2021/11/20 11:46:26;;;;;;;19.40;17.20;;;;;;;;;;5044190;28;20044;-67
2021/11/20 11:49:02;;;;;;;18.65;16.75;;;;;;;;;;5053992;28;20041;-66
2021/11/20 11:51:35;;;;;;;21.50;17.50;;;;;;;;;;5042464;28;20494;-63
2021/11/20 11:54:05;;;;;;;22.98;18.13;;;;;;;;;;5034385;28;20478;-60
2021/11/20 11:56:37;;;;;;;24.58;19.40;;;;;;;;;;5035889;28;20032;-64
2021/11/20 11:59:07;;;;;;;22.40;20.00;;;;;;;;;;5042322;28;20045;-63
2021/11/20 12:01:52;;;;;;;19.83;17.73;;;;;;;;;;5036896;28;20033;-62
2021/11/20 12:04:30;;;;;;;18.65;16.05;;;;;;;;;;5040594;28;20264;-63
2021/11/20 12:07:10;;;;;;;17.75;15.68;;;;;;;;;;5039894;28;20492;-62
2021/11/20 12:09:45;;;;;;;17.42;14.75;;;;;;;;;;5035449;28;20041;-63
2021/11/20 12:12:14;;;;;;;18.48;15.95;;;;;;;;;;5047744;28;20033;-65
2021/11/20 12:14:44;;;;;;;18.95;15.18;;;;;;;;;;5032615;28;20036;-64
2021/11/20 12:17:11;;;;;;;20.88;17.25;;;;;;;;;;5031910;28;20053;-62
2021/11/20 12:19:51;;;;;;;24.30;19.08;;;;;;;;;;5033719;28;20041;-62
2021/11/20 12:22:57;;;;;;;25.40;18.40;;;;;;;;;;5032389;28;20049;-62
2021/11/20 12:25:44;;;;;;;29.58;17.50;;;;;;;;;;5043497;28;20025;-62
2021/11/20 12:28:13;;;;;;;18.15;15.27;;;;;;;;;;5036240;28;20501;-60
2021/11/20 12:30:58;;;;;;;19.52;15.00;;;;;;;;;;5030168;28;20060;-61
2021/11/20 12:33:31;;;;;;;22.30;15.88;;;;;;;;;;5031853;28;20478;-66
2021/11/20 12:35:59;;;;;;;16.95;15.02;;;;;;;;;;5031407;28;20037;-62
2021/11/20 12:38:29;;;;;;;20.00;15.98;;;;;;;;;;5032557;28;20033;-65
2021/11/20 12:41:13;;;;;;;17.43;14.83;;;;;;;;;;5032433;28;20055;-63
2021/11/20 12:43:43;;;;;;;17.95;14.35;;;;;;;;;;5031652;28;20272;-65
2021/11/20 12:46:10;;;;;;;17.17;13.53;;;;;;;;;;5032013;28;20029;-63
2021/11/20 12:48:55;;;;;;;15.25;13.60;;;;;;;;;;5032747;28;20044;-65
2021/11/20 12:51:22;;;;;;;15.00;13.07;;;;;;;;;;5032051;28;20036;-65
2021/11/20 12:53:52;;;;;;;16.13;14.40;;;;;;;;;;5032176;28;20081;-65
2021/11/20 12:56:18;;;;;;;19.40;16.27;;;;;;;;;;5033081;28;20048;-64
2021/11/20 12:58:47;;;;;;;19.23;17.17;;;;;;;;;;5035955;28;20025;-64
2021/11/20 13:01:16;;;;;;;18.13;14.35;;;;;;;;;;5043055;28;20029;-64
2021/11/20 13:03:45;;;;;;;16.30;13.98;;;;;;;;;;5051466;28;20471;-67
2021/11/20 13:06:20;;;;;;;16.42;14.07;;;;;;;;;;5052956;28;20039;-66
2021/11/20 13:08:52;;;;;;;18.05;14.02;;;;;;;;;;5051112;28;20041;-65
2021/11/20 13:11:22;;;;;;;15.85;13.85;;;;;;;;;;5052545;28;20036;-65
2021/11/20 13:13:48;;;;;;;19.15;14.07;;;;;;;;;;5052480;28;20044;-64
2021/11/20 13:16:15;;;;;;;18.30;15.93;;;;;;;;;;5051554;28;20025;-67
2021/11/20 13:18:58;;;;;;;17.85;14.65;;;;;;;;;;5043495;28;20049;-66
2021/11/20 13:21:27;;;;;;;18.45;14.85;;;;;;;;;;5043528;28;20040;-66
2021/11/20 13:24:06;;;;;;;19.52;15.65;;;;;;;;;;5035174;28;20029;-65
2021/11/20 13:26:32;;;;;;;19.55;14.88;;;;;;;;;;5045200;28;20041;-63
2021/11/20 13:29:00;;;;;;;15.82;13.57;;;;;;;;;;5044616;28;20571;-64
2021/11/20 13:31:34;;;;;;;21.67;16.55;;;;;;;;;;5040523;28;20029;-65
2021/11/20 13:34:01;;;;;;;20.98;16.15;;;;;;;;;;5031196;28;20389;-64
2021/11/20 13:36:31;;;;;;;22.70;17.63;;;;;;;;;;5039583;28;20040;-65
2021/11/20 13:39:00;;;;;;;21.98;16.17;;;;;;;;;;5036485;28;20037;-63
2021/11/20 13:41:27;;;;;;;19.90;16.65;;;;;;;;;;5040602;28;20046;-65
2021/11/20 13:43:54;;;;;;;22.23;17.73;;;;;;;;;;5040965;28;20034;-63
2021/11/20 13:46:21;;;;;;;20.52;17.55;;;;;;;;;;5050521;28;20033;-68
2021/11/20 13:48:52;;;;;;;19.55;17.00;;;;;;;;;;5045501;28;20036;-65
2021/11/20 13:51:21;;;;;;;21.02;18.20;;;;;;;;;;5040876;28;20492;-65
2021/11/20 13:53:52;;;;;;;18.15;15.45;;;;;;;;;;5033672;28;20033;-64
2021/11/20 13:56:19;;;;;;;20.92;17.45;;;;;;;;;;5032576;28;20033;-64
2021/11/20 13:58:46;;;;;;;20.58;17.83;;;;;;;;;;5031455;28;20036;-67
2021/11/20 14:01:19;;;;;;;18.58;16.00;;;;;;;;;;5031876;28;20385;-67
2021/11/20 14:03:56;;;;;;;19.45;15.10;;;;;;;;;;5032375;28;20018;-65
2021/11/20 14:06:23;;;;;;;21.75;16.73;;;;;;;;;;5033335;28;20037;-77
2021/11/20 14:08:50;;;;;;;19.70;17.48;;;;;;;;;;5034705;28;20037;-68
2021/11/20 14:11:19;;;;;;;20.50;16.23;;;;;;;;;;5032275;28;20026;-65
2021/11/20 14:13:57;;;;;;;21.45;17.23;;;;;;;;;;5030951;28;20022;-63
2021/11/20 14:16:29;;;;;;;21.88;17.10;;;;;;;;;;5032114;28;20025;-71
2021/11/20 14:18:56;;;;;;;23.35;17.25;;;;;;;;;;5031082;28;20434;-63
2021/11/20 14:21:25;;;;;;;22.25;17.67;;;;;;;;;;5031396;28;20096;-66
2021/11/20 14:23:56;;;;;;;23.60;18.65;;;;;;;;;;5014629;28;20397;-62
2021/11/20 14:26:23;;;;;;;22.80;18.88;;;;;;;;;;5030483;28;20033;-63
2021/11/20 14:28:50;;;;;;;25.75;19.63;;;;;;;;;;5031700;28;20049;-66
2021/11/20 14:31:18;;;;;;;26.98;20.08;;;;;;;;;;5031762;28;20026;-65
2021/11/20 14:33:50;;;;;;;25.42;19.80;;;;;;;;;;5034488;28;20462;-65
2021/11/20 14:36:17;;;;;;;23.25;19.60;;;;;;;;;;5034313;28;20027;-64
2021/11/20 14:38:51;;;;;;;37.13;19.25;;;;;;;;;;5035676;28;20489;-67
2021/11/20 14:41:17;;;;;;;27.38;18.40;;;;;;;;;;5035539;28;20025;-67
2021/11/20 14:43:44;;;;;;;26.80;18.88;;;;;;;;;;5034775;28;20025;-66
2021/11/20 14:46:15;;;;;;;25.75;20.45;;;;;;;;;;5035453;28;20462;-67
2021/11/20 14:48:42;;;;;;;22.65;18.30;;;;;;;;;;5035739;28;20377;-68
2021/11/20 14:51:09;;;;;;;22.77;16.65;;;;;;;;;;5037825;28;20039;-68
2021/11/20 14:53:37;;;;;;;24.17;19.33;;;;;;;;;;5045695;28;20028;-67
2021/11/20 14:56:12;;;;;;;24.02;18.27;;;;;;;;;;5037272;28;20383;-68